TSO3250 UKBB-LBSF
Flight info
| Callsign | TSO3250 |
|---|---|
| Flight time | 1h 45m |
| Altitude | 36000 |
| Route | UKBB SID BASOR M856 SULUM N145 LAVDA N181 NUNTA DCT ULGAP DCT BUKEL DCT TIMUR N181 GOL STAR LBSF |
| Aircraft | B733/M-SDFGHIRWY/HB1 |
Departure
| Time | 2025-10-07 18:36 |
|---|---|
| Airport | Boryspil International Airport (UKBB) |
Arrival
| Time | 2025-10-07 20:21 |
|---|---|
| Airport | Sofia Airport (LBSF) |
| Time | Latitude | Longitude | Altitude | Speed | Heading |
|---|---|---|---|---|---|
| 2025-10-07 18:21 | 50.35152 | 30.89883 | 407 ft | 0 kts | 274° |
| 2025-10-07 18:24 | 50.35151 | 30.89914 | 407 ft | 2 kts | 268° |
| 2025-10-07 18:25 | 50.35150 | 30.89961 | 406 ft | 2 kts | 273° |
| 2025-10-07 18:25 | 50.35141 | 30.90004 | 405 ft | 2 kts | 323° |
| 2025-10-07 18:26 | 50.35122 | 30.90013 | 405 ft | 1 kts | 5° |
| 2025-10-07 18:26 | 50.35120 | 30.90012 | 405 ft | 0 kts | 3° |
| 2025-10-07 18:28 | 50.35158 | 30.90015 | 405 ft | 7 kts | 3° |
| 2025-10-07 18:29 | 50.35229 | 30.90020 | 405 ft | 12 kts | 2° |
| 2025-10-07 18:29 | 50.35477 | 30.90255 | 402 ft | 15 kts | 46° |
| 2025-10-07 18:30 | 50.35689 | 30.90296 | 402 ft | 16 kts | 3° |
| 2025-10-07 18:30 | 50.35802 | 30.90305 | 402 ft | 16 kts | 2° |
| 2025-10-07 18:31 | 50.36033 | 30.90338 | 402 ft | 13 kts | 28° |
| 2025-10-07 18:31 | 50.36036 | 30.90341 | 402 ft | 0 kts | 31° |
| 2025-10-07 18:32 | 50.36066 | 30.90378 | 402 ft | 7 kts | 49° |
| 2025-10-07 18:33 | 50.36085 | 30.90494 | 401 ft | 14 kts | 100° |
| 2025-10-07 18:33 | 50.35623 | 30.90617 | 398 ft | 37 kts | 183° |
| 2025-10-07 18:34 | 50.34228 | 30.90508 | 411 ft | 161 kts | 181° |
| 2025-10-07 18:34 | 50.33054 | 30.90313 | 797 ft | 177 kts | 188° |
| 2025-10-07 18:35 | 50.30558 | 30.89542 | 1673 ft | 207 kts | 185° |
| 2025-10-07 18:35 | 50.25599 | 30.88352 | 3233 ft | 265 kts | 185° |
| 2025-10-07 18:36 | 50.23778 | 30.87918 | 4090 ft | 269 kts | 185° |
| 2025-10-07 18:36 | 50.18211 | 30.86561 | 6787 ft | 275 kts | 186° |
| 2025-10-07 18:37 | 50.14426 | 30.85647 | 8438 ft | 280 kts | 186° |
| 2025-10-07 18:37 | 50.10558 | 30.84715 | 10082 ft | 283 kts | 187° |
| 2025-10-07 18:38 | 50.06681 | 30.83753 | 11670 ft | 282 kts | 187° |
| 2025-10-07 18:38 | 50.04734 | 30.83247 | 12429 ft | 283 kts | 188° |
| 2025-10-07 18:39 | 50.00544 | 30.82062 | 12680 ft | 331 kts | 188° |
| 2025-10-07 18:39 | 49.93356 | 30.80012 | 14323 ft | 356 kts | 188° |
| 2025-10-07 18:40 | 49.88480 | 30.78595 | 15729 ft | 359 kts | 188° |
| 2025-10-07 18:40 | 49.83546 | 30.77200 | 17077 ft | 362 kts | 188° |
| 2025-10-07 18:41 | 49.78563 | 30.75787 | 18372 ft | 365 kts | 189° |
| 2025-10-07 18:41 | 49.73521 | 30.74351 | 19588 ft | 369 kts | 189° |
| 2025-10-07 18:42 | 49.68429 | 30.72908 | 20765 ft | 373 kts | 190° |
| 2025-10-07 18:42 | 49.65887 | 30.72187 | 21335 ft | 375 kts | 190° |
| 2025-10-07 18:43 | 49.60721 | 30.70725 | 22341 ft | 380 kts | 191° |
| 2025-10-07 18:43 | 49.53478 | 30.66234 | 23748 ft | 387 kts | 222° |
| 2025-10-07 18:44 | 49.49550 | 30.60520 | 24843 ft | 387 kts | 222° |
| 2025-10-07 18:44 | 49.45624 | 30.54910 | 25975 ft | 386 kts | 222° |
| 2025-10-07 18:46 | 49.29711 | 30.32401 | 30172 ft | 379 kts | 221° |
| 2025-10-07 18:48 | 49.14742 | 30.11464 | 34060 ft | 356 kts | 220° |
| 2025-10-07 18:50 | 49.01927 | 29.93679 | 35478 ft | 359 kts | 221° |
| 2025-10-07 18:52 | 48.84896 | 29.70299 | 36065 ft | 371 kts | 221° |
| 2025-10-07 18:54 | 48.71444 | 29.51950 | 36057 ft | 371 kts | 221° |
| 2025-10-07 18:56 | 48.54181 | 29.28561 | 36054 ft | 371 kts | 219° |
| 2025-10-07 18:58 | 48.40616 | 29.10354 | 36039 ft | 373 kts | 219° |
| 2025-10-07 19:00 | 48.23093 | 28.87042 | 36036 ft | 373 kts | 219° |
| 2025-10-07 19:02 | 48.09909 | 28.70723 | 36029 ft | 371 kts | 209° |
| 2025-10-07 19:04 | 47.89787 | 28.53364 | 36021 ft | 370 kts | 208° |
| 2025-10-07 19:06 | 47.74107 | 28.39862 | 36014 ft | 371 kts | 208° |
| 2025-10-07 19:08 | 47.54151 | 28.22756 | 36015 ft | 372 kts | 207° |
| 2025-10-07 19:10 | 47.38426 | 28.09407 | 36029 ft | 371 kts | 208° |
| 2025-10-07 19:12 | 47.18170 | 27.92348 | 36076 ft | 371 kts | 207° |
| 2025-10-07 19:14 | 47.02904 | 27.78083 | 36072 ft | 372 kts | 213° |
| 2025-10-07 19:16 | 46.83849 | 27.58356 | 36024 ft | 374 kts | 213° |
| 2025-10-07 19:18 | 46.69143 | 27.42266 | 36015 ft | 378 kts | 213° |
| 2025-10-07 19:20 | 46.50156 | 27.21606 | 36059 ft | 380 kts | 213° |
| 2025-10-07 19:22 | 46.35249 | 27.05539 | 36073 ft | 382 kts | 213° |
| 2025-10-07 19:24 | 46.15939 | 26.84892 | 36007 ft | 384 kts | 212° |
| 2025-10-07 19:26 | 46.00829 | 26.68864 | 35941 ft | 387 kts | 212° |
| 2025-10-07 19:28 | 45.81185 | 26.48217 | 35916 ft | 388 kts | 212° |
| 2025-10-07 19:30 | 45.65794 | 26.32137 | 35906 ft | 393 kts | 211° |
| 2025-10-07 19:32 | 45.45824 | 26.11433 | 35875 ft | 397 kts | 212° |
| 2025-10-07 19:34 | 45.30123 | 25.95305 | 35904 ft | 397 kts | 212° |
| 2025-10-07 19:36 | 45.10124 | 25.74918 | 35834 ft | 391 kts | 211° |
| 2025-10-07 19:38 | 44.94920 | 25.58466 | 36105 ft | 391 kts | 213° |
| 2025-10-07 19:40 | 44.75509 | 25.37279 | 35870 ft | 400 kts | 214° |
| 2025-10-07 19:42 | 44.59836 | 25.20319 | 35916 ft | 404 kts | 213° |
| 2025-10-07 19:44 | 44.39582 | 24.98581 | 35931 ft | 408 kts | 214° |
| 2025-10-07 19:47 | 44.19484 | 24.77123 | 35896 ft | 402 kts | 213° |
| 2025-10-07 19:48 | 44.06109 | 24.62949 | 35905 ft | 403 kts | 213° |
| 2025-10-07 19:50 | 43.87802 | 24.44901 | 35952 ft | 399 kts | 197° |
| 2025-10-07 19:52 | 43.66240 | 24.38377 | 34126 ft | 403 kts | 188° |
| 2025-10-07 19:54 | 43.42567 | 24.29144 | 30658 ft | 377 kts | 192° |
| 2025-10-07 19:56 | 43.25435 | 24.21317 | 27392 ft | 373 kts | 192° |
| 2025-10-07 19:57 | 43.15443 | 24.16788 | 24468 ft | 383 kts | 193° |
| 2025-10-07 19:58 | 43.10342 | 24.14480 | 22937 ft | 384 kts | 194° |
| 2025-10-07 19:58 | 43.05309 | 24.12206 | 21399 ft | 379 kts | 194° |
| 2025-10-07 19:59 | 42.97852 | 24.08841 | 19106 ft | 371 kts | 195° |
| 2025-10-07 19:59 | 42.92941 | 24.06630 | 17585 ft | 366 kts | 195° |
| 2025-10-07 20:00 | 42.88124 | 24.04467 | 16031 ft | 361 kts | 195° |
| 2025-10-07 20:00 | 42.85770 | 24.03419 | 15287 ft | 357 kts | 195° |
| 2025-10-07 20:01 | 42.81075 | 24.01315 | 13767 ft | 351 kts | 195° |
| 2025-10-07 20:01 | 42.76468 | 23.99247 | 12281 ft | 348 kts | 195° |
| 2025-10-07 20:02 | 42.71775 | 23.97961 | 10772 ft | 341 kts | 181° |
| 2025-10-07 20:02 | 42.65786 | 23.93994 | 9089 ft | 318 kts | 247° |
| 2025-10-07 20:03 | 42.65803 | 23.88575 | 8671 ft | 283 kts | 291° |
| 2025-10-07 20:03 | 42.66726 | 23.83223 | 7192 ft | 299 kts | 284° |
| 2025-10-07 20:04 | 42.67291 | 23.77609 | 6114 ft | 288 kts | 281° |
| 2025-10-07 20:04 | 42.67482 | 23.74973 | 5963 ft | 272 kts | 280° |
| 2025-10-07 20:05 | 42.67983 | 23.67560 | 5961 ft | 249 kts | 281° |
| 2025-10-07 20:05 | 42.68128 | 23.65351 | 5981 ft | 227 kts | 281° |
| 2025-10-07 20:06 | 42.68431 | 23.61011 | 5965 ft | 230 kts | 281° |
| 2025-10-07 20:06 | 42.68711 | 23.56695 | 5932 ft | 227 kts | 281° |
| 2025-10-07 20:07 | 42.69120 | 23.50128 | 5994 ft | 231 kts | 281° |
| 2025-10-07 20:07 | 42.69266 | 23.45729 | 5986 ft | 231 kts | 275° |
| 2025-10-07 20:08 | 42.69240 | 23.43529 | 5979 ft | 232 kts | 275° |
| 2025-10-07 20:08 | 42.69259 | 23.39166 | 5980 ft | 228 kts | 288° |
| 2025-10-07 20:09 | 42.72666 | 23.37562 | 5964 ft | 213 kts | 47° |
| 2025-10-07 20:09 | 42.73879 | 23.41383 | 5990 ft | 220 kts | 66° |
| 2025-10-07 20:10 | 42.74398 | 23.43357 | 5990 ft | 219 kts | 66° |
| 2025-10-07 20:10 | 42.75446 | 23.47296 | 5977 ft | 221 kts | 65° |
| 2025-10-07 20:11 | 42.77029 | 23.53218 | 5961 ft | 221 kts | 66° |
| 2025-10-07 20:12 | 42.77102 | 23.59405 | 5958 ft | 214 kts | 96° |
| 2025-10-07 20:12 | 42.76813 | 23.61317 | 5962 ft | 198 kts | 96° |
| 2025-10-07 20:12 | 42.76249 | 23.64847 | 5698 ft | 189 kts | 96° |
| 2025-10-07 20:13 | 42.75694 | 23.68304 | 4987 ft | 188 kts | 103° |
| 2025-10-07 20:13 | 42.73439 | 23.70056 | 3997 ft | 209 kts | 186° |
| 2025-10-07 20:14 | 42.70602 | 23.69736 | 3488 ft | 202 kts | 184° |
| 2025-10-07 20:15 | 42.67635 | 23.67198 | 3669 ft | 163 kts | 258° |
| 2025-10-07 20:15 | 42.67607 | 23.64361 | 3502 ft | 147 kts | 292° |
| 2025-10-07 20:16 | 42.68232 | 23.61629 | 3585 ft | 153 kts | 291° |
| 2025-10-07 20:16 | 42.68474 | 23.60241 | 3574 ft | 152 kts | 284° |
| 2025-10-07 20:16 | 42.68717 | 23.57360 | 3552 ft | 152 kts | 281° |
| 2025-10-07 20:17 | 42.68871 | 23.54484 | 3374 ft | 156 kts | 280° |
| 2025-10-07 20:17 | 42.69049 | 23.51596 | 2888 ft | 149 kts | 279° |
| 2025-10-07 20:18 | 42.69133 | 23.50203 | 2693 ft | 149 kts | 279° |
| 2025-10-07 20:19 | 42.69470 | 23.44618 | 1893 ft | 146 kts | 277° |
| 2025-10-07 20:19 | 42.69644 | 23.41933 | 1740 ft | 130 kts | 275° |
| 2025-10-07 20:20 | 42.69736 | 23.40203 | 1740 ft | 58 kts | 274° |
| 2025-10-07 20:20 | 42.69759 | 23.39832 | 1740 ft | 21 kts | 277° |
| 2025-10-07 20:20 | 42.69680 | 23.39435 | 1741 ft | 11 kts | 218° |
| 2025-10-07 20:21 | 42.69642 | 23.39413 | 1741 ft | 0 kts | 195° |
| 2025-10-07 20:22 | 42.69660 | 23.39420 | 1741 ft | 7 kts | 200° |
| 2025-10-07 20:23 | 42.69602 | 23.39415 | 1742 ft | 8 kts | 184° |
| 2025-10-07 20:23 | 42.69422 | 23.39395 | 1744 ft | 16 kts | 192° |
| 2025-10-07 20:23 | 42.69377 | 23.39499 | 1747 ft | 16 kts | 97° |
| 2025-10-07 20:24 | 42.69280 | 23.39791 | 1748 ft | 16 kts | 107° |
| 2025-10-07 20:24 | 42.69154 | 23.39984 | 1751 ft | 10 kts | 196° |
| 2025-10-07 20:25 | 42.69098 | 23.40072 | 1754 ft | 8 kts | 32° |
| 2025-10-07 20:25 | 42.69186 | 23.40172 | 1754 ft | 9 kts | 95° |
| 2025-10-07 20:26 | 42.69142 | 23.40345 | 1755 ft | 10 kts | 108° |
| 2025-10-07 20:27 | 42.69061 | 23.40707 | 1754 ft | 17 kts | 107° |
| 2025-10-07 20:27 | 42.69070 | 23.40874 | 1753 ft | 18 kts | 72° |
| 2025-10-07 20:27 | 42.69119 | 23.41182 | 1747 ft | 12 kts | 121° |
| 2025-10-07 20:28 | 42.69104 | 23.41277 | 1744 ft | 0 kts | 71° |